sensor_id;sensor_type;location;lat;lon;timestamp;P1;durP1;ratioP1;P2;durP2;ratioP2
44438;SDS011;30145;48.874;10.186;2022-12-24T00:01:30;5.93;;;2.20;;
44438;SDS011;30145;48.874;10.186;2022-12-24T00:03:57;8.23;;;1.87;;
44438;SDS011;30145;48.874;10.186;2022-12-24T00:06:27;3.87;;;1.70;;
44438;SDS011;30145;48.874;10.186;2022-12-24T00:08:54;5.87;;;1.77;;
44438;SDS011;30145;48.874;10.186;2022-12-24T00:11:21;3.53;;;2.00;;
44438;SDS011;30145;48.874;10.186;2022-12-24T00:13:48;2.13;;;1.30;;
44438;SDS011;30145;48.874;10.186;2022-12-24T00:16:16;4.40;;;1.40;;
44438;SDS011;30145;48.874;10.186;2022-12-24T00:18:43;6.00;;;1.73;;
44438;SDS011;30145;48.874;10.186;2022-12-24T00:21:11;1.73;;;1.23;;
44438;SDS011;30145;48.874;10.186;2022-12-24T00:23:39;3.93;;;1.87;;
44438;SDS011;30145;48.874;10.186;2022-12-24T00:26:06;1.40;;;1.30;;
44438;SDS011;30145;48.874;10.186;2022-12-24T00:28:33;1.50;;;1.20;;
44438;SDS011;30145;48.874;10.186;2022-12-24T00:31:11;3.50;;;1.30;;
44438;SDS011;30145;48.874;10.186;2022-12-24T00:33:40;2.53;;;1.37;;
44438;SDS011;30145;48.874;10.186;2022-12-24T00:36:07;3.07;;;1.43;;
44438;SDS011;30145;48.874;10.186;2022-12-24T00:38:35;2.13;;;1.27;;
44438;SDS011;30145;48.874;10.186;2022-12-24T00:41:03;4.20;;;1.20;;
44438;SDS011;30145;48.874;10.186;2022-12-24T00:43:31;2.93;;;1.50;;
44438;SDS011;30145;48.874;10.186;2022-12-24T00:45:59;1.93;;;1.20;;
44438;SDS011;30145;48.874;10.186;2022-12-24T00:48:26;5.93;;;1.70;;
44438;SDS011;30145;48.874;10.186;2022-12-24T00:50:55;3.83;;;1.83;;
44438;SDS011;30145;48.874;10.186;2022-12-24T00:53:24;4.97;;;1.57;;
44438;SDS011;30145;48.874;10.186;2022-12-24T00:55:51;5.83;;;2.10;;
44438;SDS011;30145;48.874;10.186;2022-12-24T00:58:18;4.00;;;1.37;;
44438;SDS011;30145;48.874;10.186;2022-12-24T01:00:45;3.67;;;1.43;;
44438;SDS011;30145;48.874;10.186;2022-12-24T01:03:14;3.23;;;1.43;;
44438;SDS011;30145;48.874;10.186;2022-12-24T01:05:41;4.07;;;1.40;;
44438;SDS011;30145;48.874;10.186;2022-12-24T01:08:10;3.47;;;2.17;;
44438;SDS011;30145;48.874;10.186;2022-12-24T01:10:40;3.87;;;1.93;;
44438;SDS011;30145;48.874;10.186;2022-12-24T01:13:07;1.73;;;1.20;;
44438;SDS011;30145;48.874;10.186;2022-12-24T01:15:35;4.17;;;1.67;;
44438;SDS011;30145;48.874;10.186;2022-12-24T01:18:02;2.93;;;1.53;;
44438;SDS011;30145;48.874;10.186;2022-12-24T01:20:29;1.87;;;1.57;;
44438;SDS011;30145;48.874;10.186;2022-12-24T01:22:58;4.27;;;1.63;;
44438;SDS011;30145;48.874;10.186;2022-12-24T01:25:25;4.47;;;1.67;;
44438;SDS011;30145;48.874;10.186;2022-12-24T01:27:52;4.40;;;1.60;;
44438;SDS011;30145;48.874;10.186;2022-12-24T01:30:19;7.10;;;1.87;;
44438;SDS011;30145;48.874;10.186;2022-12-24T01:32:46;4.50;;;1.87;;
44438;SDS011;30145;48.874;10.186;2022-12-24T01:35:15;5.13;;;1.60;;
44438;SDS011;30145;48.874;10.186;2022-12-24T01:37:43;4.77;;;1.60;;
44438;SDS011;30145;48.874;10.186;2022-12-24T01:40:13;5.17;;;1.67;;
44438;SDS011;30145;48.874;10.186;2022-12-24T01:42:59;5.40;;;2.13;;
44438;SDS011;30145;48.874;10.186;2022-12-24T01:50:49;4.40;;;1.30;;
44438;SDS011;30145;48.874;10.186;2022-12-24T01:53:20;4.33;;;2.00;;
44438;SDS011;30145;48.874;10.186;2022-12-24T01:55:47;4.27;;;2.07;;
44438;SDS011;30145;48.874;10.186;2022-12-24T01:58:15;3.33;;;1.63;;
44438;SDS011;30145;48.874;10.186;2022-12-24T02:00:43;5.70;;;2.00;;
44438;SDS011;30145;48.874;10.186;2022-12-24T02:03:10;4.80;;;1.90;;
44438;SDS011;30145;48.874;10.186;2022-12-24T02:08:10;5.00;;;1.67;;
44438;SDS011;30145;48.874;10.186;2022-12-24T02:10:37;4.20;;;1.40;;
44438;SDS011;30145;48.874;10.186;2022-12-24T02:13:04;3.97;;;1.80;;
44438;SDS011;30145;48.874;10.186;2022-12-24T02:15:42;1.83;;;1.20;;
44438;SDS011;30145;48.874;10.186;2022-12-24T02:21:04;2.23;;;1.30;;
44438;SDS011;30145;48.874;10.186;2022-12-24T02:24:13;4.00;;;1.40;;
44438;SDS011;30145;48.874;10.186;2022-12-24T02:27:10;3.57;;;1.50;;
44438;SDS011;30145;48.874;10.186;2022-12-24T02:30:00;4.30;;;2.00;;
44438;SDS011;30145;48.874;10.186;2022-12-24T02:38:02;2.67;;;1.27;;
44438;SDS011;30145;48.874;10.186;2022-12-24T02:40:57;3.23;;;1.33;;
44438;SDS011;30145;48.874;10.186;2022-12-24T02:43:33;1.73;;;1.00;;
44438;SDS011;30145;48.874;10.186;2022-12-24T02:46:22;5.00;;;1.70;;
44438;SDS011;30145;48.874;10.186;2022-12-24T02:48:51;4.73;;;1.13;;
44438;SDS011;30145;48.874;10.186;2022-12-24T02:51:21;5.93;;;2.17;;
44438;SDS011;30145;48.874;10.186;2022-12-24T02:53:52;4.20;;;1.30;;
44438;SDS011;30145;48.874;10.186;2022-12-24T02:56:31;5.13;;;1.77;;
44438;SDS011;30145;48.874;10.186;2022-12-24T03:01:59;6.83;;;1.90;;
44438;SDS011;30145;48.874;10.186;2022-12-24T03:07:14;4.57;;;1.80;;
44438;SDS011;30145;48.874;10.186;2022-12-24T03:12:32;7.33;;;2.23;;
44438;SDS011;30145;48.874;10.186;2022-12-24T03:15:02;6.83;;;2.40;;
44438;SDS011;30145;48.874;10.186;2022-12-24T03:17:31;3.73;;;1.73;;
44438;SDS011;30145;48.874;10.186;2022-12-24T03:20:02;11.23;;;2.10;;
44438;SDS011;30145;48.874;10.186;2022-12-24T03:22:30;8.53;;;2.30;;
44438;SDS011;30145;48.874;10.186;2022-12-24T03:25:16;6.93;;;2.77;;
44438;SDS011;30145;48.874;10.186;2022-12-24T03:27:43;5.20;;;2.13;;
44438;SDS011;30145;48.874;10.186;2022-12-24T03:30:12;4.23;;;2.10;;
44438;SDS011;30145;48.874;10.186;2022-12-24T03:32:41;7.97;;;2.30;;
44438;SDS011;30145;48.874;10.186;2022-12-24T03:35:08;6.57;;;2.00;;
44438;SDS011;30145;48.874;10.186;2022-12-24T03:37:36;5.77;;;2.00;;
44438;SDS011;30145;48.874;10.186;2022-12-24T03:40:04;10.37;;;2.50;;
44438;SDS011;30145;48.874;10.186;2022-12-24T03:42:32;6.83;;;1.90;;
44438;SDS011;30145;48.874;10.186;2022-12-24T03:44:59;5.80;;;1.97;;
44438;SDS011;30145;48.874;10.186;2022-12-24T03:47:26;9.07;;;2.47;;
44438;SDS011;30145;48.874;10.186;2022-12-24T03:49:52;6.57;;;1.77;;
44438;SDS011;30145;48.874;10.186;2022-12-24T03:52:19;5.37;;;1.73;;
44438;SDS011;30145;48.874;10.186;2022-12-24T03:54:46;4.43;;;2.07;;
44438;SDS011;30145;48.874;10.186;2022-12-24T03:57:13;6.50;;;2.10;;
44438;SDS011;30145;48.874;10.186;2022-12-24T03:59:40;7.70;;;2.43;;
44438;SDS011;30145;48.874;10.186;2022-12-24T04:02:08;6.33;;;2.60;;
44438;SDS011;30145;48.874;10.186;2022-12-24T04:04:35;8.20;;;2.50;;
44438;SDS011;30145;48.874;10.186;2022-12-24T04:07:03;12.37;;;3.13;;
44438;SDS011;30145;48.874;10.186;2022-12-24T04:09:30;6.33;;;2.23;;
44438;SDS011;30145;48.874;10.186;2022-12-24T04:11:58;13.07;;;2.53;;
44438;SDS011;30145;48.874;10.186;2022-12-24T04:14:25;14.70;;;3.23;;
44438;SDS011;30145;48.874;10.186;2022-12-24T04:16:52;5.97;;;2.43;;
44438;SDS011;30145;48.874;10.186;2022-12-24T04:19:19;8.93;;;2.27;;
44438;SDS011;30145;48.874;10.186;2022-12-24T04:21:46;8.10;;;2.47;;
44438;SDS011;30145;48.874;10.186;2022-12-24T04:24:13;9.40;;;2.53;;
44438;SDS011;30145;48.874;10.186;2022-12-24T04:26:40;10.03;;;2.43;;
44438;SDS011;30145;48.874;10.186;2022-12-24T04:29:07;5.40;;;2.73;;
44438;SDS011;30145;48.874;10.186;2022-12-24T04:31:34;6.40;;;2.23;;
44438;SDS011;30145;48.874;10.186;2022-12-24T04:34:01;8.03;;;2.37;;
44438;SDS011;30145;48.874;10.186;2022-12-24T04:36:28;7.03;;;2.40;;
44438;SDS011;30145;48.874;10.186;2022-12-24T04:38:55;10.60;;;2.77;;
44438;SDS011;30145;48.874;10.186;2022-12-24T04:41:22;10.47;;;2.80;;
44438;SDS011;30145;48.874;10.186;2022-12-24T04:43:51;4.03;;;2.10;;
44438;SDS011;30145;48.874;10.186;2022-12-24T04:46:20;6.90;;;2.23;;
44438;SDS011;30145;48.874;10.186;2022-12-24T04:49:09;7.43;;;2.13;;
44438;SDS011;30145;48.874;10.186;2022-12-24T04:51:36;8.63;;;2.17;;
44438;SDS011;30145;48.874;10.186;2022-12-24T04:54:03;6.60;;;2.30;;
44438;SDS011;30145;48.874;10.186;2022-12-24T04:56:31;4.60;;;2.07;;
44438;SDS011;30145;48.874;10.186;2022-12-24T04:58:58;11.37;;;2.43;;
44438;SDS011;30145;48.874;10.186;2022-12-24T05:01:27;9.83;;;1.77;;
44438;SDS011;30145;48.874;10.186;2022-12-24T05:04:07;12.60;;;2.67;;
44438;SDS011;30145;48.874;10.186;2022-12-24T05:06:36;7.23;;;2.23;;
44438;SDS011;30145;48.874;10.186;2022-12-24T05:09:03;6.83;;;2.10;;
44438;SDS011;30145;48.874;10.186;2022-12-24T05:11:30;8.13;;;2.13;;
44438;SDS011;30145;48.874;10.186;2022-12-24T05:13:57;13.17;;;2.30;;
44438;SDS011;30145;48.874;10.186;2022-12-24T05:16:48;8.77;;;2.10;;
44438;SDS011;30145;48.874;10.186;2022-12-24T05:19:15;10.57;;;2.43;;
44438;SDS011;30145;48.874;10.186;2022-12-24T05:21:42;4.97;;;2.03;;
44438;SDS011;30145;48.874;10.186;2022-12-24T05:24:10;9.30;;;2.50;;
44438;SDS011;30145;48.874;10.186;2022-12-24T05:26:56;6.77;;;2.20;;
44438;SDS011;30145;48.874;10.186;2022-12-24T05:29:23;7.83;;;2.40;;
44438;SDS011;30145;48.874;10.186;2022-12-24T05:31:51;5.70;;;1.93;;
44438;SDS011;30145;48.874;10.186;2022-12-24T05:34:18;7.80;;;2.77;;
44438;SDS011;30145;48.874;10.186;2022-12-24T05:36:45;6.07;;;2.27;;
44438;SDS011;30145;48.874;10.186;2022-12-24T05:39:13;7.70;;;2.03;;
44438;SDS011;30145;48.874;10.186;2022-12-24T05:41:53;6.47;;;1.97;;
44438;SDS011;30145;48.874;10.186;2022-12-24T05:44:20;8.90;;;1.70;;
44438;SDS011;30145;48.874;10.186;2022-12-24T05:46:47;7.00;;;1.80;;
44438;SDS011;30145;48.874;10.186;2022-12-24T05:49:14;4.80;;;1.53;;
44438;SDS011;30145;48.874;10.186;2022-12-24T05:51:42;6.73;;;1.93;;
44438;SDS011;30145;48.874;10.186;2022-12-24T05:54:09;4.57;;;1.70;;
44438;SDS011;30145;48.874;10.186;2022-12-24T05:56:36;6.10;;;1.60;;
44438;SDS011;30145;48.874;10.186;2022-12-24T05:59:03;4.77;;;2.10;;
44438;SDS011;30145;48.874;10.186;2022-12-24T06:01:30;6.00;;;1.77;;
44438;SDS011;30145;48.874;10.186;2022-12-24T06:03:57;6.37;;;1.87;;
44438;SDS011;30145;48.874;10.186;2022-12-24T06:06:26;6.67;;;1.60;;
44438;SDS011;30145;48.874;10.186;2022-12-24T06:08:53;6.47;;;2.00;;
44438;SDS011;30145;48.874;10.186;2022-12-24T06:11:25;5.70;;;2.87;;
44438;SDS011;30145;48.874;10.186;2022-12-24T06:13:52;6.30;;;1.83;;
44438;SDS011;30145;48.874;10.186;2022-12-24T06:16:30;5.10;;;2.37;;
44438;SDS011;30145;48.874;10.186;2022-12-24T06:18:57;5.43;;;2.03;;
44438;SDS011;30145;48.874;10.186;2022-12-24T06:21:25;6.30;;;1.90;;
44438;SDS011;30145;48.874;10.186;2022-12-24T06:23:52;6.10;;;1.87;;
44438;SDS011;30145;48.874;10.186;2022-12-24T06:26:20;7.07;;;2.00;;
44438;SDS011;30145;48.874;10.186;2022-12-24T06:28:48;6.53;;;2.63;;
44438;SDS011;30145;48.874;10.186;2022-12-24T06:31:17;5.77;;;2.20;;
44438;SDS011;30145;48.874;10.186;2022-12-24T06:33:45;6.10;;;1.93;;
44438;SDS011;30145;48.874;10.186;2022-12-24T06:36:13;8.77;;;2.20;;
44438;SDS011;30145;48.874;10.186;2022-12-24T06:38:43;3.90;;;1.57;;
44438;SDS011;30145;48.874;10.186;2022-12-24T06:41:10;4.43;;;1.80;;
44438;SDS011;30145;48.874;10.186;2022-12-24T06:43:37;3.70;;;1.67;;
44438;SDS011;30145;48.874;10.186;2022-12-24T06:46:06;4.23;;;2.03;;
44438;SDS011;30145;48.874;10.186;2022-12-24T06:48:33;4.93;;;1.97;;
44438;SDS011;30145;48.874;10.186;2022-12-24T06:51:01;5.67;;;2.30;;
44438;SDS011;30145;48.874;10.186;2022-12-24T06:53:29;8.20;;;2.73;;
44438;SDS011;30145;48.874;10.186;2022-12-24T06:56:00;5.27;;;1.57;;
44438;SDS011;30145;48.874;10.186;2022-12-24T06:58:35;6.47;;;2.30;;
44438;SDS011;30145;48.874;10.186;2022-12-24T07:01:03;8.23;;;1.90;;
44438;SDS011;30145;48.874;10.186;2022-12-24T07:03:32;4.63;;;1.70;;
44438;SDS011;30145;48.874;10.186;2022-12-24T07:05:59;8.57;;;2.00;;
44438;SDS011;30145;48.874;10.186;2022-12-24T07:08:26;5.83;;;2.00;;
44438;SDS011;30145;48.874;10.186;2022-12-24T07:10:53;8.03;;;2.27;;
44438;SDS011;30145;48.874;10.186;2022-12-24T07:13:21;6.17;;;3.10;;
44438;SDS011;30145;48.874;10.186;2022-12-24T07:15:55;9.37;;;2.57;;
44438;SDS011;30145;48.874;10.186;2022-12-24T07:18:26;6.30;;;2.00;;
44438;SDS011;30145;48.874;10.186;2022-12-24T07:20:53;4.90;;;2.10;;
44438;SDS011;30145;48.874;10.186;2022-12-24T07:23:20;4.73;;;2.10;;
44438;SDS011;30145;48.874;10.186;2022-12-24T07:25:47;6.63;;;2.53;;
44438;SDS011;30145;48.874;10.186;2022-12-24T07:28:14;5.93;;;2.10;;
44438;SDS011;30145;48.874;10.186;2022-12-24T07:30:41;6.00;;;2.10;;
44438;SDS011;30145;48.874;10.186;2022-12-24T07:33:09;3.60;;;2.10;;
44438;SDS011;30145;48.874;10.186;2022-12-24T07:35:35;9.23;;;1.97;;
44438;SDS011;30145;48.874;10.186;2022-12-24T07:38:08;5.50;;;2.00;;
44438;SDS011;30145;48.874;10.186;2022-12-24T07:40:35;7.03;;;1.77;;
44438;SDS011;30145;48.874;10.186;2022-12-24T07:43:02;9.03;;;2.40;;
44438;SDS011;30145;48.874;10.186;2022-12-24T07:45:29;8.23;;;2.33;;
44438;SDS011;30145;48.874;10.186;2022-12-24T07:47:56;6.37;;;2.60;;
44438;SDS011;30145;48.874;10.186;2022-12-24T07:50:23;26.30;;;13.40;;
44438;SDS011;30145;48.874;10.186;2022-12-24T07:52:50;49.37;;;23.77;;
44438;SDS011;30145;48.874;10.186;2022-12-24T07:55:17;21.37;;;10.47;;
44438;SDS011;30145;48.874;10.186;2022-12-24T07:57:44;14.00;;;6.90;;
44438;SDS011;30145;48.874;10.186;2022-12-24T08:00:11;26.30;;;11.03;;
44438;SDS011;30145;48.874;10.186;2022-12-24T08:02:41;21.57;;;7.87;;
44438;SDS011;30145;48.874;10.186;2022-12-24T08:05:08;7.13;;;2.47;;
44438;SDS011;30145;48.874;10.186;2022-12-24T08:07:35;10.20;;;3.93;;
44438;SDS011;30145;48.874;10.186;2022-12-24T08:10:02;5.93;;;2.07;;
44438;SDS011;30145;48.874;10.186;2022-12-24T08:12:29;6.47;;;2.43;;
44438;SDS011;30145;48.874;10.186;2022-12-24T08:14:56;7.90;;;1.87;;
44438;SDS011;30145;48.874;10.186;2022-12-24T08:17:23;8.07;;;1.90;;
44438;SDS011;30145;48.874;10.186;2022-12-24T08:19:53;4.57;;;2.03;;
44438;SDS011;30145;48.874;10.186;2022-12-24T08:22:20;5.50;;;1.70;;
44438;SDS011;30145;48.874;10.186;2022-12-24T08:24:47;4.47;;;1.80;;
44438;SDS011;30145;48.874;10.186;2022-12-24T08:27:14;5.83;;;1.83;;
44438;SDS011;30145;48.874;10.186;2022-12-24T08:29:42;4.53;;;2.07;;
44438;SDS011;30145;48.874;10.186;2022-12-24T08:32:08;5.03;;;1.80;;
44438;SDS011;30145;48.874;10.186;2022-12-24T08:34:36;5.50;;;1.90;;
44438;SDS011;30145;48.874;10.186;2022-12-24T08:37:03;3.93;;;1.93;;
44438;SDS011;30145;48.874;10.186;2022-12-24T08:39:30;5.97;;;2.10;;
44438;SDS011;30145;48.874;10.186;2022-12-24T08:41:57;6.07;;;2.00;;
44438;SDS011;30145;48.874;10.186;2022-12-24T08:44:24;9.13;;;2.50;;
44438;SDS011;30145;48.874;10.186;2022-12-24T08:46:51;7.50;;;2.37;;
44438;SDS011;30145;48.874;10.186;2022-12-24T08:49:18;4.80;;;1.97;;
44438;SDS011;30145;48.874;10.186;2022-12-24T08:51:45;2.47;;;1.70;;
44438;SDS011;30145;48.874;10.186;2022-12-24T08:54:12;7.60;;;2.43;;
44438;SDS011;30145;48.874;10.186;2022-12-24T08:56:39;7.37;;;2.00;;
44438;SDS011;30145;48.874;10.186;2022-12-24T08:59:05;5.10;;;2.00;;
44438;SDS011;30145;48.874;10.186;2022-12-24T09:01:32;5.03;;;1.90;;
44438;SDS011;30145;48.874;10.186;2022-12-24T09:04:00;8.30;;;2.57;;
44438;SDS011;30145;48.874;10.186;2022-12-24T09:06:27;5.40;;;2.20;;
44438;SDS011;30145;48.874;10.186;2022-12-24T09:08:54;5.77;;;1.90;;
44438;SDS011;30145;48.874;10.186;2022-12-24T09:11:22;7.50;;;2.10;;
44438;SDS011;30145;48.874;10.186;2022-12-24T09:13:49;8.43;;;2.47;;
44438;SDS011;30145;48.874;10.186;2022-12-24T09:16:16;4.60;;;2.27;;
44438;SDS011;30145;48.874;10.186;2022-12-24T09:18:43;8.03;;;3.00;;
44438;SDS011;30145;48.874;10.186;2022-12-24T09:21:12;7.37;;;2.67;;
44438;SDS011;30145;48.874;10.186;2022-12-24T09:23:40;6.17;;;2.13;;
44438;SDS011;30145;48.874;10.186;2022-12-24T09:26:19;6.60;;;2.80;;
44438;SDS011;30145;48.874;10.186;2022-12-24T09:28:48;4.47;;;2.13;;
44438;SDS011;30145;48.874;10.186;2022-12-24T09:31:16;5.70;;;2.00;;
44438;SDS011;30145;48.874;10.186;2022-12-24T09:33:43;5.73;;;1.90;;
44438;SDS011;30145;48.874;10.186;2022-12-24T09:36:11;7.13;;;2.13;;
44438;SDS011;30145;48.874;10.186;2022-12-24T09:38:58;6.77;;;2.00;;
44438;SDS011;30145;48.874;10.186;2022-12-24T09:47:32;8.13;;;2.77;;
44438;SDS011;30145;48.874;10.186;2022-12-24T09:50:52;6.43;;;2.10;;
44438;SDS011;30145;48.874;10.186;2022-12-24T09:56:16;4.57;;;2.30;;
44438;SDS011;30145;48.874;10.186;2022-12-24T09:58:53;9.83;;;2.57;;
44438;SDS011;30145;48.874;10.186;2022-12-24T10:01:23;7.47;;;2.23;;
44438;SDS011;30145;48.874;10.186;2022-12-24T10:03:50;6.97;;;2.27;;
44438;SDS011;30145;48.874;10.186;2022-12-24T10:06:21;6.60;;;2.47;;
44438;SDS011;30145;48.874;10.186;2022-12-24T10:15:14;12.57;;;3.50;;
44438;SDS011;30145;48.874;10.186;2022-12-24T10:21:12;4.53;;;1.70;;
44438;SDS011;30145;48.874;10.186;2022-12-24T10:23:51;10.47;;;2.17;;
44438;SDS011;30145;48.874;10.186;2022-12-24T10:26:25;7.10;;;2.00;;
44438;SDS011;30145;48.874;10.186;2022-12-24T10:28:57;11.63;;;2.50;;
44438;SDS011;30145;48.874;10.186;2022-12-24T10:31:28;6.33;;;1.97;;
44438;SDS011;30145;48.874;10.186;2022-12-24T10:34:10;5.73;;;2.30;;
44438;SDS011;30145;48.874;10.186;2022-12-24T10:36:42;9.67;;;2.87;;
44438;SDS011;30145;48.874;10.186;2022-12-24T10:39:12;8.00;;;2.50;;
44438;SDS011;30145;48.874;10.186;2022-12-24T10:41:45;7.10;;;2.10;;
44438;SDS011;30145;48.874;10.186;2022-12-24T10:44:15;9.70;;;2.53;;
44438;SDS011;30145;48.874;10.186;2022-12-24T10:46:43;9.27;;;2.43;;
44438;SDS011;30145;48.874;10.186;2022-12-24T10:49:16;8.73;;;2.77;;
44438;SDS011;30145;48.874;10.186;2022-12-24T10:51:53;10.53;;;2.43;;
44438;SDS011;30145;48.874;10.186;2022-12-24T10:54:24;8.27;;;2.60;;
44438;SDS011;30145;48.874;10.186;2022-12-24T10:57:01;13.46;;;2.57;;
44438;SDS011;30145;48.874;10.186;2022-12-24T11:02:28;11.77;;;2.67;;
44438;SDS011;30145;48.874;10.186;2022-12-24T11:04:57;7.70;;;3.17;;
44438;SDS011;30145;48.874;10.186;2022-12-24T11:07:26;10.30;;;3.23;;
44438;SDS011;30145;48.874;10.186;2022-12-24T11:10:04;10.80;;;4.27;;
44438;SDS011;30145;48.874;10.186;2022-12-24T11:12:34;16.70;;;5.97;;
44438;SDS011;30145;48.874;10.186;2022-12-24T11:15:07;10.70;;;2.30;;
44438;SDS011;30145;48.874;10.186;2022-12-24T11:17:41;8.53;;;2.50;;
44438;SDS011;30145;48.874;10.186;2022-12-24T11:20:17;7.47;;;2.23;;
44438;SDS011;30145;48.874;10.186;2022-12-24T11:22:48;6.37;;;2.30;;
44438;SDS011;30145;48.874;10.186;2022-12-24T11:25:23;9.47;;;2.50;;
44438;SDS011;30145;48.874;10.186;2022-12-24T11:27:54;9.80;;;2.50;;
44438;SDS011;30145;48.874;10.186;2022-12-24T11:30:28;9.93;;;2.30;;
44438;SDS011;30145;48.874;10.186;2022-12-24T11:35:28;7.33;;;2.47;;
44438;SDS011;30145;48.874;10.186;2022-12-24T11:43:14;8.57;;;2.30;;
44438;SDS011;30145;48.874;10.186;2022-12-24T11:45:49;5.40;;;1.93;;
44438;SDS011;30145;48.874;10.186;2022-12-24T11:48:31;5.73;;;1.93;;
44438;SDS011;30145;48.874;10.186;2022-12-24T11:51:00;5.53;;;2.00;;
44438;SDS011;30145;48.874;10.186;2022-12-24T11:56:26;7.40;;;2.67;;
44438;SDS011;30145;48.874;10.186;2022-12-24T11:59:08;6.07;;;2.00;;
44438;SDS011;30145;48.874;10.186;2022-12-24T12:04:20;11.93;;;2.70;;
44438;SDS011;30145;48.874;10.186;2022-12-24T12:09:26;9.07;;;2.27;;
44438;SDS011;30145;48.874;10.186;2022-12-24T12:12:40;7.37;;;2.37;;
44438;SDS011;30145;48.874;10.186;2022-12-24T12:14:53;10.70;;;2.40;;
44438;SDS011;30145;48.874;10.186;2022-12-24T12:17:26;6.27;;;2.63;;
44438;SDS011;30145;48.874;10.186;2022-12-24T12:25:23;8.30;;;2.57;;
44438;SDS011;30145;48.874;10.186;2022-12-24T12:28:07;10.03;;;2.70;;
44438;SDS011;30145;48.874;10.186;2022-12-24T12:30:44;11.83;;;2.87;;
44438;SDS011;30145;48.874;10.186;2022-12-24T12:33:21;16.97;;;7.10;;
44438;SDS011;30145;48.874;10.186;2022-12-24T12:35:53;4.63;;;2.60;;
44438;SDS011;30145;48.874;10.186;2022-12-24T12:38:21;8.60;;;2.33;;
44438;SDS011;30145;48.874;10.186;2022-12-24T12:46:33;10.63;;;5.83;;
44438;SDS011;30145;48.874;10.186;2022-12-24T12:54:53;12.37;;;5.70;;
44438;SDS011;30145;48.874;10.186;2022-12-24T12:57:37;7.70;;;4.73;;
44438;SDS011;30145;48.874;10.186;2022-12-24T13:00:05;9.20;;;4.80;;
44438;SDS011;30145;48.874;10.186;2022-12-24T13:02:39;7.90;;;4.27;;
44438;SDS011;30145;48.874;10.186;2022-12-24T13:11:32;11.97;;;3.07;;
44438;SDS011;30145;48.874;10.186;2022-12-24T13:14:35;9.73;;;3.40;;
44438;SDS011;30145;48.874;10.186;2022-12-24T13:20:37;10.20;;;5.20;;
44438;SDS011;30145;48.874;10.186;2022-12-24T13:30:48;14.37;;;5.80;;
44438;SDS011;30145;48.874;10.186;2022-12-24T13:33:50;11.70;;;4.67;;
44438;SDS011;30145;48.874;10.186;2022-12-24T13:36:09;7.77;;;3.10;;
44438;SDS011;30145;48.874;10.186;2022-12-24T13:38:40;6.60;;;2.40;;
44438;SDS011;30145;48.874;10.186;2022-12-24T13:49:20;6.80;;;3.20;;
44438;SDS011;30145;48.874;10.186;2022-12-24T13:54:39;9.40;;;3.30;;
44438;SDS011;30145;48.874;10.186;2022-12-24T14:03:35;13.30;;;3.37;;
44438;SDS011;30145;48.874;10.186;2022-12-24T14:05:45;10.10;;;5.10;;
44438;SDS011;30145;48.874;10.186;2022-12-24T14:16:04;10.67;;;3.37;;
44438;SDS011;30145;48.874;10.186;2022-12-24T14:18:36;7.85;;;2.28;;
44438;SDS011;30145;48.874;10.186;2022-12-24T14:21:25;9.83;;;2.50;;
44438;SDS011;30145;48.874;10.186;2022-12-24T14:24:34;7.93;;;3.20;;
44438;SDS011;30145;48.874;10.186;2022-12-24T14:26:58;8.87;;;2.93;;
44438;SDS011;30145;48.874;10.186;2022-12-24T14:29:32;5.87;;;2.57;;
44438;SDS011;30145;48.874;10.186;2022-12-24T14:32:07;8.27;;;2.47;;
44438;SDS011;30145;48.874;10.186;2022-12-24T14:34:39;8.23;;;2.63;;
44438;SDS011;30145;48.874;10.186;2022-12-24T14:37:06;7.70;;;2.77;;
44438;SDS011;30145;48.874;10.186;2022-12-24T14:39:36;10.37;;;2.70;;
44438;SDS011;30145;48.874;10.186;2022-12-24T14:48:11;9.37;;;3.10;;
44438;SDS011;30145;48.874;10.186;2022-12-24T14:55:45;17.10;;;7.10;;
44438;SDS011;30145;48.874;10.186;2022-12-24T15:00:49;8.73;;;2.70;;
44438;SDS011;30145;48.874;10.186;2022-12-24T15:03:18;5.43;;;2.60;;
44438;SDS011;30145;48.874;10.186;2022-12-24T15:05:55;11.73;;;2.87;;
44438;SDS011;30145;48.874;10.186;2022-12-24T15:08:57;11.30;;;4.67;;
44438;SDS011;30145;48.874;10.186;2022-12-24T15:11:18;12.30;;;5.43;;
44438;SDS011;30145;48.874;10.186;2022-12-24T15:13:51;7.33;;;4.80;;
44438;SDS011;30145;48.874;10.186;2022-12-24T15:16:24;7.90;;;4.03;;
44438;SDS011;30145;48.874;10.186;2022-12-24T15:18:55;9.13;;;4.47;;
44438;SDS011;30145;48.874;10.186;2022-12-24T15:21:26;11.67;;;4.70;;
44438;SDS011;30145;48.874;10.186;2022-12-24T15:23:55;7.20;;;3.10;;
44438;SDS011;30145;48.874;10.186;2022-12-24T15:28:52;6.60;;;3.00;;
44438;SDS011;30145;48.874;10.186;2022-12-24T15:31:24;8.67;;;3.00;;
44438;SDS011;30145;48.874;10.186;2022-12-24T15:33:54;12.80;;;3.50;;
44438;SDS011;30145;48.874;10.186;2022-12-24T15:36:29;8.30;;;3.47;;
44438;SDS011;30145;48.874;10.186;2022-12-24T15:38:58;10.23;;;3.10;;
44438;SDS011;30145;48.874;10.186;2022-12-24T15:41:29;9.20;;;2.40;;
44438;SDS011;30145;48.874;10.186;2022-12-24T15:44:03;7.90;;;3.37;;
44438;SDS011;30145;48.874;10.186;2022-12-24T15:46:30;7.47;;;2.23;;
44438;SDS011;30145;48.874;10.186;2022-12-24T15:48:59;11.63;;;2.30;;
44438;SDS011;30145;48.874;10.186;2022-12-24T15:51:31;8.00;;;3.10;;
44438;SDS011;30145;48.874;10.186;2022-12-24T15:54:06;8.23;;;2.50;;
44438;SDS011;30145;48.874;10.186;2022-12-24T15:56:40;7.77;;;2.10;;
44438;SDS011;30145;48.874;10.186;2022-12-24T16:01:41;5.63;;;2.80;;
44438;SDS011;30145;48.874;10.186;2022-12-24T16:04:13;10.73;;;2.60;;
44438;SDS011;30145;48.874;10.186;2022-12-24T16:07:02;8.33;;;2.83;;
44438;SDS011;30145;48.874;10.186;2022-12-24T16:12:14;8.10;;;3.40;;
44438;SDS011;30145;48.874;10.186;2022-12-24T16:14:56;7.13;;;2.57;;
44438;SDS011;30145;48.874;10.186;2022-12-24T16:17:28;9.47;;;2.60;;
44438;SDS011;30145;48.874;10.186;2022-12-24T16:20:02;6.57;;;2.47;;
44438;SDS011;30145;48.874;10.186;2022-12-24T16:22:31;9.03;;;2.97;;
44438;SDS011;30145;48.874;10.186;2022-12-24T16:27:53;7.20;;;2.47;;
44438;SDS011;30145;48.874;10.186;2022-12-24T16:30:22;5.07;;;2.43;;
44438;SDS011;30145;48.874;10.186;2022-12-24T16:32:49;8.87;;;3.60;;
44438;SDS011;30145;48.874;10.186;2022-12-24T16:35:19;9.97;;;2.77;;
44438;SDS011;30145;48.874;10.186;2022-12-24T16:37:51;9.03;;;2.97;;
44438;SDS011;30145;48.874;10.186;2022-12-24T16:40:18;10.67;;;2.77;;
44438;SDS011;30145;48.874;10.186;2022-12-24T16:42:48;6.23;;;2.60;;
44438;SDS011;30145;48.874;10.186;2022-12-24T16:45:34;4.43;;;2.17;;
44438;SDS011;30145;48.874;10.186;2022-12-24T16:48:04;6.00;;;2.87;;
44438;SDS011;30145;48.874;10.186;2022-12-24T16:50:32;7.63;;;2.83;;
44438;SDS011;30145;48.874;10.186;2022-12-24T16:52:59;5.60;;;2.37;;
44438;SDS011;30145;48.874;10.186;2022-12-24T16:55:26;5.83;;;2.60;;
44438;SDS011;30145;48.874;10.186;2022-12-24T16:57:53;10.67;;;3.10;;
44438;SDS011;30145;48.874;10.186;2022-12-24T17:00:21;8.70;;;2.70;;
44438;SDS011;30145;48.874;10.186;2022-12-24T17:02:48;9.20;;;2.93;;
44438;SDS011;30145;48.874;10.186;2022-12-24T17:05:16;6.17;;;2.60;;
44438;SDS011;30145;48.874;10.186;2022-12-24T17:07:43;12.43;;;3.87;;
44438;SDS011;30145;48.874;10.186;2022-12-24T17:10:11;9.70;;;3.07;;
44438;SDS011;30145;48.874;10.186;2022-12-24T17:12:39;9.57;;;3.13;;
44438;SDS011;30145;48.874;10.186;2022-12-24T17:15:07;15.03;;;5.80;;
44438;SDS011;30145;48.874;10.186;2022-12-24T17:17:34;9.07;;;3.53;;
44438;SDS011;30145;48.874;10.186;2022-12-24T17:20:02;9.47;;;3.90;;